Chicago, Illinois
Current Conditions -  °F | °C
As of 10:53 AM on Friday 28 Nov 2014 (Local Time) from KMDW Reporting Station
Broken Clouds Broken Clouds  
Wind Chill: 17°   Ceiling: 15000
Heat Index: 28°   Visibility: 10mi
Dew Point: 15°   Wind: 14mph
Humidity: 58%   Direction: 170°S
Pressure: 30.18"   Gusts: 23mph
Location:  41.88°N, 87.63°W
Report Text: KMDW 281653Z 17012G20KT 10SM FEW110 BKN150 BKN250 M02/M09 A3018 RMK AO2 PRESFR SLP234 T10221094 $
Loading
Personal Weather Stations






























Interactive Weather Map New forecast layout! Learn more

10-Day Weather Forecast

Advertisements
Track Severe Weather on mobile